createdAt,value
2022-09-21T00:00:08.489Z,8.8
2022-09-21T00:05:07.854Z,8.8
2022-09-21T00:10:08.591Z,8.6
2022-09-21T00:15:08.339Z,8.6
2022-09-21T00:20:08.104Z,8.8
2022-09-21T00:25:07.796Z,8.8
2022-09-21T00:30:08.487Z,8.8
2022-09-21T00:35:08.179Z,8.8
2022-09-21T00:40:07.916Z,8.6
2022-09-21T00:45:08.623Z,8.6
2022-09-21T00:50:08.357Z,8.5
2022-09-21T00:55:08.048Z,8.5
2022-09-21T01:00:07.764Z,8.3
2022-09-21T01:05:08.427Z,8.3
2022-09-21T01:10:08.138Z,8.1
2022-09-21T01:15:07.821Z,8.1
2022-09-21T01:20:08.527Z,7.9
2022-09-21T01:25:08.244Z,7.9
2022-09-21T01:30:07.970Z,7.6
2022-09-21T01:35:07.691Z,7.6
2022-09-21T01:40:08.489Z,7.5
2022-09-21T01:45:08.228Z,7.5
2022-09-21T01:50:07.961Z,7.5
2022-09-21T01:55:12.859Z,7.5
2022-09-21T02:00:08.552Z,7.4
2022-09-21T02:05:08.242Z,7.4
2022-09-21T02:10:07.946Z,7.4
2022-09-21T02:15:07.666Z,7.4
2022-09-21T02:20:08.396Z,7.0
2022-09-21T02:25:08.042Z,7.0
2022-09-21T02:30:07.763Z,7.0
2022-09-21T02:35:08.466Z,7.0
2022-09-21T02:40:08.206Z,6.9
2022-09-21T02:45:14.505Z,6.9
2022-09-21T02:50:08.193Z,7.0
2022-09-21T02:55:07.884Z,7.0
2022-09-21T03:00:10.055Z,7.0
2022-09-21T03:05:07.789Z,7.0
2022-09-21T03:10:08.473Z,7.0
2022-09-21T03:15:08.162Z,7.0
2022-09-21T03:20:07.906Z,7.0
2022-09-21T03:25:08.580Z,7.0
2022-09-21T03:30:08.259Z,6.9
2022-09-21T03:35:07.944Z,6.9
2022-09-21T03:40:07.719Z,6.6
2022-09-21T03:45:08.417Z,6.6
2022-09-21T03:50:10.200Z,6.5
2022-09-21T03:55:08.053Z,6.5
2022-09-21T04:00:07.775Z,6.4
2022-09-21T04:05:02.624Z,6.0
2022-09-21T04:10:02.437Z,6.0
2022-09-21T04:15:02.197Z,6.0
2022-09-21T04:20:02.063Z,6.0
2022-09-21T04:25:01.793Z,5.9
2022-09-21T04:30:01.870Z,5.9
2022-09-21T04:35:02.720Z,5.8
2022-09-21T04:40:02.597Z,5.9
2022-09-21T04:45:02.400Z,5.9
2022-09-21T04:50:02.185Z,5.8
2022-09-21T04:55:02.028Z,5.8
2022-09-21T05:00:01.877Z,5.5
2022-09-21T05:05:02.907Z,5.5
2022-09-21T05:10:02.857Z,5.8
2022-09-21T05:15:02.783Z,5.8
2022-09-21T05:20:02.701Z,5.5
2022-09-21T05:25:02.532Z,5.5
2022-09-21T05:30:02.414Z,5.8
2022-09-21T05:35:02.299Z,5.8
2022-09-21T05:40:02.351Z,5.9
2022-09-21T05:45:02.174Z,5.9
2022-09-21T05:50:01.974Z,5.9
2022-09-21T05:55:01.742Z,5.9
2022-09-21T06:00:02.609Z,5.8
2022-09-21T06:05:02.405Z,6.0
2022-09-21T06:10:02.233Z,6.0
2022-09-21T06:15:01.953Z,6.4
2022-09-21T06:20:01.757Z,6.4
2022-09-21T06:25:02.560Z,6.6
2022-09-21T06:30:02.360Z,6.6
2022-09-21T06:35:02.213Z,7.1
2022-09-21T06:40:02.044Z,7.6
2022-09-21T06:45:01.946Z,7.6
2022-09-21T06:50:01.793Z,7.6
2022-09-21T06:55:02.538Z,7.6
2022-09-21T07:00:02.358Z,8.0
2022-09-21T07:05:02.254Z,8.0
2022-09-21T07:10:06.208Z,8.6
2022-09-21T07:15:02.588Z,8.6
2022-09-21T07:20:02.412Z,9.1
2022-09-21T07:25:02.249Z,9.1
2022-09-21T07:30:02.058Z,9.8
2022-09-21T07:35:01.980Z,9.8
2022-09-21T07:40:01.866Z,10.1
2022-09-21T07:45:04.599Z,10.1
2022-09-21T07:50:02.800Z,10.8
2022-09-21T07:55:02.749Z,10.8
2022-09-21T08:00:02.680Z,11.6
2022-09-21T08:05:02.612Z,11.6
2022-09-21T08:10:02.540Z,12.8
2022-09-21T08:15:02.654Z,12.8
2022-09-21T08:20:02.671Z,14.5
2022-09-21T08:25:02.517Z,14.5
2022-09-21T08:30:02.351Z,15.5
2022-09-21T08:35:02.193Z,15.5
2022-09-21T08:40:02.663Z,17.0
2022-09-21T08:45:02.577Z,17.0
2022-09-21T08:50:02.401Z,17.3
2022-09-21T08:55:02.244Z,17.3
2022-09-21T09:00:02.055Z,16.2
2022-09-21T09:05:01.874Z,18.2
2022-09-21T09:10:02.743Z,18.2
2022-09-21T09:15:02.556Z,18.2
2022-09-21T09:20:02.377Z,19.1
2022-09-21T09:25:02.301Z,19.1
2022-09-21T09:30:03.643Z,19.2
2022-09-21T09:35:01.838Z,19.2
2022-09-21T09:40:02.726Z,20.0
2022-09-21T09:45:02.541Z,20.0
2022-09-21T09:50:10.573Z,19.7
2022-09-21T09:55:12.392Z,19.7
2022-09-21T10:00:02.228Z,19.2
2022-09-21T10:05:02.042Z,19.2
2022-09-21T10:10:01.898Z,19.2
2022-09-21T10:15:02.738Z,19.2
2022-09-21T10:20:02.556Z,20.2
2022-09-21T10:25:02.367Z,20.2
2022-09-21T10:30:02.217Z,22.0
2022-09-21T10:35:02.187Z,20.0
2022-09-21T10:40:02.207Z,20.2
2022-09-21T10:45:02.133Z,17.7
2022-09-21T10:50:02.108Z,19.7
2022-09-21T10:55:01.984Z,19.7
2022-09-21T11:00:02.013Z,19.7
2022-09-21T11:05:02.034Z,17.7
2022-09-21T11:10:11.815Z,17.7
2022-09-21T11:15:02.631Z,21.2
2022-09-21T11:20:02.568Z,19.7
2022-09-21T11:25:02.423Z,21.2
2022-09-21T11:30:02.228Z,21.8
2022-09-21T11:35:02.043Z,21.8
2022-09-21T11:40:11.938Z,23.2
2022-09-21T11:45:01.856Z,23.2
2022-09-21T11:50:26.479Z,22.7
2022-09-21T11:55:01.751Z,22.7
2022-09-21T12:00:02.539Z,22.7
2022-09-21T12:05:02.372Z,22.7
2022-09-21T12:10:02.237Z,23.6
2022-09-21T12:15:02.350Z,23.6
2022-09-21T12:20:02.444Z,22.3
2022-09-21T12:25:02.286Z,22.3
2022-09-21T12:30:02.116Z,23.6
2022-09-21T12:35:01.943Z,23.6
2022-09-21T12:40:01.844Z,25.1
2022-09-21T12:45:12.595Z,21.2
2022-09-21T12:50:02.457Z,21.2
2022-09-21T12:55:02.278Z,21.2
2022-09-21T13:00:02.108Z,20.0
2022-09-21T13:05:01.994Z,20.0
2022-09-21T13:10:01.994Z,21.5
2022-09-21T13:15:01.879Z,21.5
2022-09-21T13:20:02.853Z,21.3
2022-09-21T13:25:02.788Z,21.3
2022-09-21T13:30:02.696Z,21.8
2022-09-21T13:35:02.538Z,21.8
2022-09-21T13:40:02.601Z,21.7
2022-09-21T13:45:02.620Z,21.7
2022-09-21T13:50:02.433Z,22.1
2022-09-21T13:55:02.329Z,22.1
2022-09-21T14:00:02.332Z,22.0
2022-09-21T14:05:02.138Z,22.0
2022-09-21T14:10:02.075Z,23.3
2022-09-21T14:15:01.996Z,21.6
2022-09-21T14:20:01.835Z,21.6
2022-09-21T14:25:02.664Z,22.2
2022-09-21T14:30:06.761Z,22.2
2022-09-21T14:35:01.804Z,22.3
2022-09-21T14:40:02.642Z,22.0
2022-09-21T14:45:02.503Z,22.0
2022-09-21T14:50:06.481Z,22.0
2022-09-21T14:55:02.342Z,22.0
2022-09-21T15:00:02.195Z,20.2
2022-09-21T15:05:02.014Z,20.2
2022-09-21T15:10:01.832Z,21.7
2022-09-21T15:15:02.578Z,21.7
2022-09-21T15:20:02.417Z,22.0
2022-09-21T15:25:02.152Z,22.0
2022-09-21T15:30:01.960Z,20.0
2022-09-21T15:35:01.816Z,20.1
2022-09-21T15:40:02.690Z,20.1
2022-09-21T15:45:02.582Z,20.8
2022-09-21T15:50:02.542Z,20.8
2022-09-21T15:55:02.475Z,20.8
2022-09-21T16:00:02.369Z,21.3
2022-09-21T16:05:02.210Z,21.3
2022-09-21T16:10:02.149Z,20.2
2022-09-21T16:15:04.260Z,20.2
2022-09-21T16:20:02.433Z,18.6
2022-09-21T16:25:02.777Z,18.6
2022-09-21T16:30:02.649Z,17.5
2022-09-21T16:35:12.496Z,17.5
2022-09-21T16:40:02.400Z,17.0
2022-09-21T16:45:02.171Z,17.0
2022-09-21T16:50:02.012Z,16.7
2022-09-21T16:55:01.812Z,16.7
2022-09-21T17:00:02.580Z,16.6
2022-09-21T17:05:02.381Z,16.6
2022-09-21T17:10:02.103Z,15.8
2022-09-21T17:15:01.953Z,15.8
2022-09-21T17:20:01.788Z,15.1
2022-09-21T17:25:02.533Z,15.1
2022-09-21T17:30:02.340Z,14.5
2022-09-21T17:35:02.219Z,14.5
2022-09-21T17:40:04.034Z,14.3
2022-09-21T17:45:12.718Z,14.3
2022-09-21T17:50:02.627Z,13.6
2022-09-21T17:55:05.700Z,13.5
2022-09-21T18:00:01.875Z,13.3
2022-09-21T18:05:02.693Z,13.3
2022-09-21T18:10:02.523Z,13.1
2022-09-21T18:15:02.332Z,13.1
2022-09-21T18:20:12.040Z,12.8
2022-09-21T18:25:01.898Z,12.8
2022-09-21T18:30:02.668Z,12.3
2022-09-21T18:35:02.617Z,12.3
2022-09-21T18:40:02.643Z,12.0
2022-09-21T18:45:02.674Z,12.0
2022-09-21T18:50:02.491Z,11.8
2022-09-21T18:55:02.427Z,11.8
2022-09-21T19:00:02.356Z,11.8
2022-09-21T19:05:02.309Z,11.8
2022-09-21T19:10:02.285Z,11.6
2022-09-21T19:15:02.056Z,11.6
2022-09-21T19:20:04.018Z,11.3
2022-09-21T19:25:01.775Z,11.3
2022-09-21T19:30:02.589Z,11.1
2022-09-21T19:35:02.385Z,11.1
2022-09-21T19:40:02.275Z,11.0
2022-09-21T19:45:02.036Z,11.0
2022-09-21T19:50:01.863Z,10.8
2022-09-21T19:55:07.597Z,10.8
2022-09-21T20:00:02.385Z,10.8
2022-09-21T20:05:02.158Z,10.8
2022-09-21T20:10:02.022Z,10.6
2022-09-21T20:15:01.863Z,10.6
2022-09-21T20:20:02.693Z,10.3
2022-09-21T20:25:02.542Z,10.3
2022-09-21T20:30:02.331Z,10.1
2022-09-21T20:35:15.338Z,10.1
2022-09-21T20:40:08.090Z,10.1
2022-09-21T20:45:07.896Z,10.1
2022-09-21T20:50:08.588Z,10.0
2022-09-21T20:55:08.281Z,10.0
2022-09-21T21:00:07.985Z,9.8
2022-09-21T21:05:07.701Z,9.8
2022-09-21T21:10:08.438Z,9.6
2022-09-21T21:15:08.151Z,9.6
2022-09-21T21:20:07.854Z,9.3
2022-09-21T21:25:08.576Z,9.3
2022-09-21T21:30:08.265Z,9.3
2022-09-21T21:35:07.950Z,9.3
2022-09-21T21:40:07.724Z,9.1
2022-09-21T21:45:08.478Z,9.1
2022-09-21T21:50:08.185Z,9.0
2022-09-21T21:55:07.879Z,9.0
2022-09-21T22:00:08.625Z,8.8
2022-09-21T22:05:08.329Z,8.8
2022-09-21T22:10:08.071Z,8.8
2022-09-21T22:15:07.768Z,8.8
2022-09-21T22:20:08.525Z,8.6
2022-09-21T22:25:08.272Z,8.6
2022-09-21T22:30:07.937Z,8.5
2022-09-21T22:35:08.602Z,8.5
2022-09-21T22:40:08.366Z,8.5
2022-09-21T22:45:08.082Z,8.5
2022-09-21T22:50:07.791Z,8.3
2022-09-21T22:55:08.584Z,8.3
2022-09-21T23:01:01.007Z,8.1
2022-09-21T23:05:07.732Z,8.1
2022-09-21T23:10:08.427Z,8.3
2022-09-21T23:15:08.104Z,8.3
2022-09-21T23:20:07.784Z,8.3
2022-09-21T23:25:08.523Z,8.3
2022-09-21T23:30:08.243Z,8.1
2022-09-21T23:35:07.947Z,8.1
2022-09-21T23:40:07.738Z,8.0
2022-09-21T23:45:08.456Z,8.0
2022-09-21T23:50:08.135Z,7.9
2022-09-21T23:55:07.820Z,7.9
